Terminal Aerodrome Forecast
Issued by NWS

Home | Current Version | Previous Version | Text Only | Print | Product List | Glossary On
Versions: 1 2 3 4 5 6 7 8 9 10 11 12 13 14 15 16 17 18 19 20 21 22 23 24 25 26 27 28 29 30 31 32 33 34 35 36 37 38 39 40 41 42 43 44 45
000
FTUS43 KMKX 280520
TAFUES
TAF
KUES 280520Z 2806/2906 VRB03KT P6SM BKN250
     FM281900 16007KT P6SM BKN200
     FM282200 13008KT 6SM -SHRA SCT050 BKN070
     FM282300 12009KT 3SM -SHRA BR BKN045
     FM290500 14006KT 4SM -SHRA BR OVC035=

USA.gov is the U.S. government's official web portal to all federal, state and local government web resources and services.